createdAt,value
2018-11-27T00:00:18.317Z,99765.55
2018-11-27T00:02:46.886Z,99763.38
2018-11-27T00:07:45.988Z,99779.42
2018-11-27T00:10:14.691Z,99771.11
2018-11-27T00:12:43.256Z,99772.92
2018-11-27T00:15:13.115Z,99772.42
2018-11-27T00:17:42.369Z,99784.03
2018-11-27T00:20:13.753Z,99781.38
2018-11-27T00:22:42.513Z,99790.88
2018-11-27T00:25:14.243Z,99788.81
2018-11-27T00:27:43.188Z,99791.44
2018-11-27T00:30:21.639Z,99793.58
2018-11-27T00:32:50.615Z,99791.38
2018-11-27T00:35:20.452Z,99796.21
2018-11-27T00:37:49.003Z,99801.77
2018-11-27T00:40:19.995Z,99802.93
2018-11-27T00:42:48.983Z,99803.45
2018-11-27T00:45:18.837Z,99809.64
2018-11-27T00:47:48.581Z,99814.26
2018-11-27T00:50:19.204Z,99813.43
2018-11-27T00:52:47.766Z,99814.07
2018-11-27T00:55:17.270Z,99818.84
2018-11-27T00:57:52.987Z,99822.10
2018-11-27T01:00:22.400Z,99831.11
2018-11-27T01:02:51.032Z,99829.80
2018-11-27T01:05:21.898Z,99828.97
2018-11-27T01:07:50.560Z,99829.98
2018-11-27T01:10:20.973Z,99833.06
2018-11-27T01:12:49.632Z,99826.79
2018-11-27T01:15:18.243Z,99830.58
2018-11-27T01:17:48.919Z,99834.08
2018-11-27T01:20:19.654Z,99826.19
2018-11-27T01:22:48.341Z,99828.81
2018-11-27T01:25:16.881Z,99834.67
2018-11-27T01:27:45.539Z,99831.75
2018-11-27T01:30:16.023Z,99836.70
2018-11-27T01:32:44.811Z,99841.95
2018-11-27T01:35:14.923Z,99838.66
2018-11-27T01:37:43.606Z,99840.94
2018-11-27T01:40:16.983Z,99841.28
2018-11-27T01:42:46.038Z,99837.79
2018-11-27T01:45:16.778Z,99838.20
2018-11-27T01:47:45.808Z,99846.54
2018-11-27T01:50:15.513Z,99845.07
2018-11-27T01:52:44.082Z,99848.00
2018-11-27T01:55:14.454Z,99853.26
2018-11-27T01:57:43.058Z,99844.70
2018-11-27T02:00:21.124Z,99845.45
2018-11-27T02:02:49.820Z,99845.03
2018-11-27T02:05:18.375Z,99857.84
2018-11-27T02:07:46.997Z,99847.25
2018-11-27T02:10:15.955Z,99842.34
2018-11-27T02:12:45.863Z,99844.14
2018-11-27T02:15:17.094Z,99848.57
2018-11-27T02:17:45.614Z,99851.42
2018-11-27T02:20:14.490Z,99860.42
2018-11-27T02:22:43.098Z,99860.45
2018-11-27T02:25:14.099Z,99862.94
2018-11-27T02:27:42.632Z,99859.97
2018-11-27T02:30:13.715Z,99860.12
2018-11-27T02:32:42.286Z,99854.86
2018-11-27T02:35:12.159Z,99857.49
2018-11-27T02:37:40.747Z,99864.13
2018-11-27T02:40:12.617Z,99863.87
2018-11-27T02:42:41.714Z,99866.69
2018-11-27T02:45:13.433Z,99871.58
2018-11-27T02:47:42.239Z,99873.23
2018-11-27T02:50:11.971Z,99873.52
2018-11-27T02:52:40.577Z,99872.55
2018-11-27T02:55:12.610Z,99870.44
2018-11-27T02:57:41.219Z,99874.65
2018-11-27T03:00:12.526Z,99874.77
2018-11-27T03:02:41.223Z,99878.34
2018-11-27T03:05:15.399Z,99878.71
2018-11-27T03:07:44.035Z,99885.66
2018-11-27T03:10:13.776Z,99885.99
2018-11-27T03:12:42.351Z,99885.50
2018-11-27T03:15:14.596Z,99886.26
2018-11-27T03:17:43.122Z,99889.00
2018-11-27T03:20:12.903Z,99885.73
2018-11-27T03:22:41.721Z,99889.15
2018-11-27T03:25:13.460Z,99895.42
2018-11-27T03:27:42.181Z,99898.58
2018-11-27T03:30:12.915Z,99897.97
2018-11-27T03:32:41.521Z,99896.46
2018-11-27T03:35:11.835Z,99904.25
2018-11-27T03:37:40.710Z,99897.31
2018-11-27T03:40:14.239Z,99900.67
2018-11-27T03:42:43.131Z,99906.14
2018-11-27T03:45:13.647Z,99912.28
2018-11-27T03:47:42.515Z,99915.59
2018-11-27T03:50:14.382Z,99916.42
2018-11-27T03:52:42.909Z,99919.27
2018-11-27T03:55:12.387Z,99919.33
2018-11-27T03:57:41.366Z,99915.39
2018-11-27T04:00:19.166Z,99927.88
2018-11-27T04:02:51.036Z,99922.63
2018-11-27T04:05:20.218Z,99926.86
2018-11-27T04:07:48.739Z,99930.27
2018-11-27T04:10:18.478Z,99934.54
2018-11-27T04:12:47.065Z,99936.50
2018-11-27T04:15:15.600Z,99941.05
2018-11-27T04:17:44.219Z,99943.20
2018-11-27T04:20:13.543Z,99942.71
2018-11-27T04:22:42.821Z,99940.86
2018-11-27T04:25:14.721Z,99943.48
2018-11-27T04:27:43.942Z,99948.75
2018-11-27T04:30:16.773Z,99953.90
2018-11-27T04:32:45.414Z,99960.47
2018-11-27T04:35:16.797Z,99960.35
2018-11-27T04:37:45.850Z,99968.50
2018-11-27T04:40:15.399Z,99971.41
2018-11-27T04:42:44.352Z,99973.61
2018-11-27T04:45:18.034Z,99979.34
2018-11-27T04:47:46.605Z,99987.66
2018-11-27T04:50:16.273Z,99981.38
2018-11-27T04:52:45.352Z,99981.38
2018-11-27T04:55:17.663Z,99989.64
2018-11-27T04:57:47.272Z,99992.08
2018-11-27T05:00:18.817Z,99994.56
2018-11-27T05:02:47.381Z,99994.91
2018-11-27T05:05:16.068Z,99998.02
2018-11-27T05:07:50.963Z,99995.59
2018-11-27T05:10:21.211Z,100009.65
2018-11-27T05:12:50.098Z,100003.89
2018-11-27T05:15:20.366Z,100004.91
2018-11-27T05:17:50.100Z,100007.69
2018-11-27T05:20:18.814Z,100004.91
2018-11-27T05:22:47.380Z,100010.88
2018-11-27T05:25:17.548Z,100007.33
2018-11-27T05:27:48.468Z,100015.16
2018-11-27T05:30:19.982Z,100015.86
2018-11-27T05:32:48.599Z,100016.25
2018-11-27T05:35:18.303Z,100018.34
2018-11-27T05:37:47.948Z,100020.78
2018-11-27T05:40:18.713Z,100022.63
2018-11-27T05:42:48.096Z,100027.69
2018-11-27T05:45:17.643Z,100024.87
2018-11-27T05:47:46.296Z,100031.78
2018-11-27T05:50:15.816Z,100040.89
2018-11-27T05:52:44.515Z,100046.15
2018-11-27T05:55:13.896Z,100043.52
2018-11-27T05:57:43.046Z,100053.69
2018-11-27T06:00:13.115Z,100048.29
2018-11-27T06:02:41.912Z,100054.52
2018-11-27T06:05:12.686Z,100055.48
2018-11-27T06:07:41.239Z,100062.00
2018-11-27T06:10:12.590Z,100065.38
2018-11-27T06:12:41.284Z,100072.77
2018-11-27T06:15:11.504Z,100073.00
2018-11-27T06:17:40.085Z,100079.62
2018-11-27T06:20:10.849Z,100082.11
2018-11-27T06:22:39.567Z,100089.66
2018-11-27T06:25:11.153Z,100089.56
2018-11-27T06:27:39.883Z,100096.56
2018-11-27T06:30:20.047Z,100096.17
2018-11-27T06:32:48.946Z,100098.70
2018-11-27T06:35:19.828Z,100104.64
2018-11-27T06:37:48.464Z,100106.68
2018-11-27T06:40:20.460Z,100103.91
2018-11-27T06:42:49.092Z,100108.82
2018-11-27T06:45:18.897Z,100112.18
2018-11-27T06:47:49.060Z,100115.63
2018-11-27T06:50:18.613Z,100114.73
2018-11-27T06:52:47.257Z,100121.30
2018-11-27T06:55:17.044Z,100121.53
2018-11-27T06:57:45.696Z,100126.38
2018-11-27T07:00:20.017Z,100135.05
2018-11-27T07:02:49.081Z,100131.44
2018-11-27T07:05:17.695Z,100138.59
2018-11-27T07:07:46.528Z,100136.38
2018-11-27T07:10:19.051Z,100137.03
2018-11-27T07:12:48.308Z,100145.66
2018-11-27T07:15:18.249Z,100145.97
2018-11-27T07:17:46.843Z,100145.24
2018-11-27T07:20:15.435Z,100144.03
2018-11-27T07:22:43.987Z,100147.56
2018-11-27T07:25:14.626Z,100149.77
2018-11-27T07:27:45.681Z,100152.57
2018-11-27T07:30:20.256Z,100158.03
2018-11-27T07:32:47.802Z,100165.25
2018-11-27T07:35:17.385Z,100157.75
2018-11-27T07:37:46.163Z,100157.09
2018-11-27T07:40:16.815Z,100160.27
2018-11-27T07:42:45.638Z,100160.86
2018-11-27T07:45:16.363Z,100165.97
2018-11-27T07:47:44.927Z,100167.59
2018-11-27T07:50:14.224Z,100166.14
2018-11-27T07:52:42.935Z,100170.62
2018-11-27T07:55:13.524Z,100171.41
2018-11-27T07:57:42.132Z,100177.15
2018-11-27T08:00:14.868Z,100180.27
2018-11-27T08:02:44.509Z,100183.64
2018-11-27T08:05:17.723Z,100192.41
2018-11-27T08:07:56.460Z,100191.70
2018-11-27T08:10:26.338Z,100191.59
2018-11-27T08:12:55.330Z,100199.15
2018-11-27T08:15:25.919Z,100204.52
2018-11-27T08:17:54.512Z,100210.84
2018-11-27T08:20:26.791Z,100217.06
2018-11-27T08:22:55.438Z,100216.09
2018-11-27T08:25:23.991Z,100217.70
2018-11-27T08:27:52.608Z,100217.22
2018-11-27T08:30:21.826Z,100222.82
2018-11-27T08:32:50.525Z,100227.75
2018-11-27T08:35:23.044Z,100231.02
2018-11-27T08:37:52.524Z,100240.76
2018-11-27T08:40:22.175Z,100238.67
2018-11-27T08:42:50.872Z,100241.45
2018-11-27T08:45:21.344Z,100243.48
2018-11-27T08:47:50.760Z,100247.00
2018-11-27T08:50:21.277Z,100247.34
2018-11-27T08:52:55.688Z,100246.38
2018-11-27T08:55:33.648Z,100248.66
2018-11-27T08:58:02.662Z,100257.87
2018-11-27T09:00:31.248Z,100261.13
2018-11-27T09:02:59.826Z,100264.94
2018-11-27T09:05:28.479Z,100262.10
2018-11-27T09:07:57.149Z,100265.56
2018-11-27T09:10:26.528Z,100270.00
2018-11-27T09:12:55.127Z,100266.88
2018-11-27T09:15:24.115Z,100265.13
2018-11-27T09:17:57.184Z,100267.02
2018-11-27T09:20:25.741Z,100264.10
2018-11-27T09:22:54.282Z,100266.53
2018-11-27T09:25:22.899Z,100267.16
2018-11-27T09:27:51.568Z,100258.36
2018-11-27T09:30:22.324Z,100256.56
2018-11-27T09:32:50.936Z,100265.44
2018-11-27T09:35:19.589Z,100264.57
2018-11-27T09:37:48.367Z,100263.34
2018-11-27T09:40:18.407Z,100262.56
2018-11-27T09:42:46.991Z,100263.05
2018-11-27T09:45:22.658Z,100266.02
2018-11-27T09:47:52.564Z,100278.44
2018-11-27T09:50:21.300Z,100281.61
2018-11-27T09:52:50.085Z,100285.20
2018-11-27T09:55:19.772Z,100283.25
2018-11-27T09:57:48.463Z,100288.30
2018-11-27T10:00:19.384Z,100287.66
2018-11-27T10:02:48.479Z,100283.16
2018-11-27T10:05:17.171Z,100284.59
2018-11-27T10:07:45.800Z,100284.18
2018-11-27T10:10:16.735Z,100280.69
2018-11-27T10:12:45.284Z,100286.37
2018-11-27T10:15:21.620Z,100289.80
2018-11-27T10:17:54.292Z,100296.69
2018-11-27T10:20:23.988Z,100291.78
2018-11-27T10:22:52.643Z,100295.02
2018-11-27T10:25:21.247Z,100301.31
2018-11-27T10:27:50.085Z,100298.73
2018-11-27T10:30:21.887Z,100295.31
2018-11-27T10:32:51.477Z,100305.70
2018-11-27T10:35:26.294Z,100304.87
2018-11-27T10:37:54.932Z,100309.23
2018-11-27T10:40:23.559Z,100310.59
2018-11-27T10:42:52.231Z,100312.50
2018-11-27T10:45:21.820Z,100308.82
2018-11-27T10:47:51.575Z,100308.73
2018-11-27T10:50:20.524Z,100317.13
2018-11-27T10:52:51.151Z,100317.59
2018-11-27T10:55:20.419Z,100309.16
2018-11-27T10:57:49.041Z,100314.55
2018-11-27T11:00:26.751Z,100319.09
2018-11-27T11:04:04.450Z,100321.03
2018-11-27T11:06:33.442Z,100316.14
2018-11-27T11:09:02.975Z,100319.27
2018-11-27T11:11:31.518Z,100321.33
2018-11-27T11:14:00.127Z,100325.41
2018-11-27T11:16:28.651Z,100323.48
2018-11-27T11:18:57.194Z,100327.02
2018-11-27T11:21:25.796Z,100335.66
2018-11-27T11:23:54.750Z,100332.70
2018-11-27T11:26:23.298Z,100328.11
2018-11-27T11:28:51.876Z,100334.44
2018-11-27T11:31:20.510Z,100336.09
2018-11-27T11:33:49.040Z,100337.62
2018-11-27T11:36:17.612Z,100340.30
2018-11-27T11:38:46.191Z,100347.30
2018-11-27T11:41:14.929Z,100347.59
2018-11-27T11:43:43.529Z,100343.81
2018-11-27T11:46:12.418Z,100343.00
2018-11-27T11:48:40.968Z,100337.73
2018-11-27T11:51:09.559Z,100340.34
2018-11-27T11:53:38.148Z,100346.47
2018-11-27T11:56:08.202Z,100345.67
2018-11-27T11:58:36.891Z,100345.70
2018-11-27T12:01:05.723Z,100345.70
2018-11-27T12:03:34.294Z,100351.66
2018-11-27T12:06:02.887Z,100356.49
2018-11-27T12:08:31.443Z,100353.38
2018-11-27T12:11:00.002Z,100352.05
2018-11-27T12:13:28.596Z,100359.00
2018-11-27T12:15:57.148Z,100357.65
2018-11-27T12:18:25.720Z,100363.74
2018-11-27T12:20:54.355Z,100365.56
2018-11-27T12:23:22.899Z,100371.35
2018-11-27T12:25:51.536Z,100362.35
2018-11-27T12:28:20.141Z,100367.47
2018-11-27T12:30:48.681Z,100371.11
2018-11-27T12:33:17.331Z,100373.06
2018-11-27T12:35:45.972Z,100368.09
2018-11-27T12:38:14.525Z,100376.60
2018-11-27T12:40:43.099Z,100372.74
2018-11-27T12:43:11.720Z,100381.62
2018-11-27T12:45:40.297Z,100380.13
2018-11-27T12:48:08.851Z,100389.83
2018-11-27T12:50:40.281Z,100394.94
2018-11-27T12:53:10.252Z,100398.80
2018-11-27T12:55:40.292Z,100403.59
2018-11-27T12:58:08.932Z,100395.47
2018-11-27T13:00:37.537Z,100404.16
2018-11-27T13:03:06.365Z,100407.22
2018-11-27T13:05:40.262Z,100407.59
2018-11-27T13:08:18.484Z,100415.06
2018-11-27T13:10:47.160Z,100420.84
2018-11-27T13:13:16.112Z,100424.41
2018-11-27T13:15:45.245Z,100431.81
2018-11-27T13:18:13.842Z,100429.52
2018-11-27T13:20:42.862Z,100424.14
2018-11-27T13:23:11.461Z,100433.78
2018-11-27T13:25:40.155Z,100439.20
2018-11-27T13:28:10.148Z,100440.98
2018-11-27T13:30:46.668Z,100448.34
2018-11-27T13:33:19.618Z,100449.45
2018-11-27T13:35:48.291Z,100442.28
2018-11-27T13:38:16.924Z,100456.91
2018-11-27T13:40:45.505Z,100454.02
2018-11-27T13:43:31.895Z,100449.64
2018-11-27T13:46:01.388Z,100462.80
2018-11-27T13:48:30.301Z,100469.17
2018-11-27T13:50:58.957Z,100473.84
2018-11-27T13:53:27.535Z,100469.17
2018-11-27T13:55:56.089Z,100471.47
2018-11-27T13:58:25.064Z,100473.61
2018-11-27T14:00:53.635Z,100478.06
2018-11-27T14:03:22.226Z,100480.70
2018-11-27T14:05:50.852Z,100485.15
2018-11-27T14:08:19.786Z,100482.92
2018-11-27T14:10:48.737Z,100480.17
2018-11-27T14:13:17.688Z,100476.55
2018-11-27T14:15:46.252Z,100489.70
2018-11-27T14:18:15.140Z,100493.41
2018-11-27T14:20:44.107Z,100486.95
2018-11-27T14:23:12.667Z,100493.53
2018-11-27T14:25:41.264Z,100492.06
2018-11-27T14:28:10.207Z,100497.53
2018-11-27T14:30:38.756Z,100499.53
2018-11-27T14:33:07.290Z,100509.62
2018-11-27T14:35:36.014Z,100495.53
2018-11-27T14:38:04.572Z,100496.16
2018-11-27T14:40:33.120Z,100496.72
2018-11-27T14:43:01.732Z,100500.26
2018-11-27T14:45:30.286Z,100501.66
2018-11-27T14:47:59.535Z,100508.08
2018-11-27T14:50:28.125Z,100510.20
2018-11-27T14:52:56.746Z,100514.02
2018-11-27T14:55:27.473Z,100518.45
2018-11-27T14:57:56.068Z,100512.13
2018-11-27T15:00:25.426Z,100513.83
2018-11-27T15:02:54.040Z,100518.17
2018-11-27T15:05:26.991Z,100523.45
2018-11-27T15:07:55.536Z,100530.58
2018-11-27T15:10:24.086Z,100528.38
2018-11-27T15:12:53.050Z,100533.94
2018-11-27T15:15:21.604Z,100525.60
2018-11-27T15:17:50.165Z,100526.87
2018-11-27T15:20:19.696Z,100527.95
2018-11-27T15:22:48.284Z,100532.62
2018-11-27T15:25:17.129Z,100533.84
2018-11-27T15:27:46.154Z,100540.78
2018-11-27T15:30:18.000Z,100540.39
2018-11-27T15:32:46.569Z,100546.84
2018-11-27T15:35:15.253Z,100546.02
2018-11-27T15:37:43.916Z,100557.11
2018-11-27T15:40:15.580Z,100555.39
2018-11-27T15:42:44.198Z,100553.58
2018-11-27T15:45:16.031Z,100551.78
2018-11-27T15:47:44.600Z,100554.91
2018-11-27T15:50:13.255Z,100556.28
2018-11-27T15:52:41.810Z,100561.11
2018-11-27T15:55:12.892Z,100555.59
2018-11-27T15:57:41.503Z,100557.88
2018-11-27T16:00:16.296Z,100568.19
2018-11-27T16:02:45.131Z,100569.02
2018-11-27T16:05:14.157Z,100570.48
2018-11-27T16:07:42.835Z,100566.97
2018-11-27T16:10:12.507Z,100571.55
2018-11-27T16:12:41.834Z,100573.02
2018-11-27T16:15:18.416Z,100573.70
2018-11-27T16:17:47.243Z,100580.98
2018-11-27T16:20:16.959Z,100584.30
2018-11-27T16:22:50.007Z,100586.37
2018-11-27T16:25:19.539Z,100589.39
2018-11-27T16:27:48.108Z,100590.24
2018-11-27T16:30:21.875Z,100588.28
2018-11-27T16:32:50.505Z,100591.06
2018-11-27T16:35:19.117Z,100593.55
2018-11-27T16:37:50.424Z,100601.11
2018-11-27T16:40:21.347Z,100601.80
2018-11-27T16:42:49.892Z,100598.14
2018-11-27T16:45:19.736Z,100599.66
2018-11-27T16:47:48.974Z,100600.16
2018-11-27T16:50:18.323Z,100601.27
2018-11-27T16:52:47.139Z,100607.29
2018-11-27T16:55:17.668Z,100606.57
2018-11-27T16:57:46.565Z,100614.20
2018-11-27T17:00:21.330Z,100608.84
2018-11-27T17:02:50.985Z,100619.67
2018-11-27T17:05:19.596Z,100616.45
2018-11-27T17:07:48.212Z,100614.66
2018-11-27T17:10:17.840Z,100611.27
2018-11-27T17:12:47.432Z,100613.76
2018-11-27T17:15:24.921Z,100618.59
2018-11-27T17:17:53.475Z,100620.37
2018-11-27T17:20:37.058Z,100623.67
2018-11-27T17:23:07.601Z,100618.89
2018-11-27T17:25:36.249Z,100620.65
2018-11-27T17:28:10.525Z,100614.92
2018-11-27T17:30:42.120Z,100625.39
2018-11-27T17:33:14.246Z,100633.05
2018-11-27T17:35:42.894Z,100637.36
2018-11-27T17:38:11.628Z,100635.00
2018-11-27T17:40:40.274Z,100634.55
2018-11-27T17:43:08.824Z,100643.53
2018-11-27T17:45:37.649Z,100644.02
2018-11-27T17:48:06.725Z,100638.77
2018-11-27T17:50:35.303Z,100639.95
2018-11-27T17:53:03.874Z,100637.38
2018-11-27T17:55:32.467Z,100634.91
2018-11-27T17:58:01.003Z,100631.28
2018-11-27T18:00:30.474Z,100634.48
2018-11-27T18:03:03.640Z,100635.79
2018-11-27T18:05:32.295Z,100630.28
2018-11-27T18:08:00.848Z,100639.02
2018-11-27T18:10:29.444Z,100644.78
2018-11-27T18:12:58.016Z,100644.73
2018-11-27T18:15:26.978Z,100648.79
2018-11-27T18:17:55.700Z,100640.39
2018-11-27T18:20:24.699Z,100648.06
2018-11-27T18:22:53.308Z,100650.63
2018-11-27T18:25:21.961Z,100661.96
2018-11-27T18:27:50.886Z,100656.27
2018-11-27T18:30:20.675Z,100660.19
2018-11-27T18:32:49.295Z,100665.62
2018-11-27T18:35:19.015Z,100665.70
2018-11-27T18:37:48.116Z,100663.53
2018-11-27T18:40:17.369Z,100666.95
2018-11-27T18:42:46.297Z,100673.36
2018-11-27T18:45:17.984Z,100676.00
2018-11-27T18:47:47.023Z,100672.39
2018-11-27T18:50:16.319Z,100678.17
2018-11-27T18:52:45.792Z,100677.24
2018-11-27T18:55:15.872Z,100679.86
2018-11-27T18:57:46.235Z,100682.94
2018-11-27T19:00:18.276Z,100677.69
2018-11-27T19:02:47.753Z,100682.13
2018-11-27T19:05:17.019Z,100682.24
2018-11-27T19:07:46.308Z,100689.98
2018-11-27T19:10:26.244Z,100692.27
2018-11-27T19:12:56.208Z,100698.75
2018-11-27T19:15:35.911Z,100698.30
2018-11-27T19:18:11.699Z,100695.28
2018-11-27T19:20:43.489Z,100704.28
2018-11-27T19:23:17.363Z,100703.56
2018-11-27T19:25:49.092Z,100697.36
2018-11-27T19:28:18.394Z,100707.21
2018-11-27T19:30:49.260Z,100709.98
2018-11-27T19:33:18.400Z,100714.73
2018-11-27T19:35:57.351Z,100711.23
2018-11-27T19:38:26.791Z,100710.19
2018-11-27T19:40:56.303Z,100713.17
2018-11-27T19:43:25.922Z,100718.34
2018-11-27T19:45:55.429Z,100718.37
2018-11-27T19:48:25.296Z,100719.13
2018-11-27T19:50:54.116Z,100731.37
2018-11-27T19:53:23.250Z,100726.52
2018-11-27T19:55:52.886Z,100731.77
2018-11-27T19:58:22.221Z,100735.79
2018-11-27T20:00:51.377Z,100738.81
2018-11-27T20:03:20.086Z,100734.85
2018-11-27T20:05:48.800Z,100733.88
2018-11-27T20:08:17.752Z,100739.57
2018-11-27T20:10:46.740Z,100739.95
2018-11-27T20:13:15.928Z,100739.43
2018-11-27T20:15:44.584Z,100751.16
2018-11-27T20:18:13.216Z,100752.47
2018-11-27T20:20:42.694Z,100757.88
2018-11-27T20:23:11.372Z,100757.39
2018-11-27T20:25:40.201Z,100767.01
2018-11-27T20:28:09.648Z,100760.90
2018-11-27T20:30:40.931Z,100752.67
2018-11-27T20:33:09.991Z,100761.63
2018-11-27T20:35:39.467Z,100760.20
2018-11-27T20:38:09.650Z,100762.63
2018-11-27T20:40:39.003Z,100760.69
2018-11-27T20:43:09.357Z,100760.86
2018-11-27T20:45:40.603Z,100761.31
2018-11-27T20:48:17.010Z,100760.62
2018-11-27T20:50:47.912Z,100759.75
2018-11-27T20:53:16.914Z,100763.88
2018-11-27T20:55:45.565Z,100759.58
2018-11-27T20:58:14.239Z,100767.45
2018-11-27T21:00:44.121Z,100772.91
2018-11-27T21:03:13.389Z,100771.03
2018-11-27T21:05:41.976Z,100781.33
2018-11-27T21:08:10.557Z,100781.08
2018-11-27T21:10:39.668Z,100776.41
2018-11-27T21:13:09.544Z,100784.58
2018-11-27T21:15:38.865Z,100788.05
2018-11-27T21:18:08.047Z,100788.20
2018-11-27T21:20:37.030Z,100788.02
2018-11-27T21:23:05.710Z,100786.95
2018-11-27T21:25:34.727Z,100791.31
2018-11-27T21:28:18.975Z,100797.59
2018-11-27T21:30:51.205Z,100795.93
2018-11-27T21:33:19.794Z,100790.90
2018-11-27T21:35:48.396Z,100783.30
2018-11-27T21:38:17.174Z,100792.49
2018-11-27T21:40:45.779Z,100788.53
2018-11-27T21:43:14.772Z,100783.92
2018-11-27T21:45:43.415Z,100793.00
2018-11-27T21:48:12.034Z,100792.56
2018-11-27T21:50:41.617Z,100797.06
2018-11-27T21:53:10.239Z,100797.69
2018-11-27T21:55:39.818Z,100799.42
2018-11-27T21:58:08.821Z,100803.24
2018-11-27T22:00:38.177Z,100804.97
2018-11-27T22:03:07.880Z,100808.47
2018-11-27T22:05:36.555Z,100808.04
2018-11-27T22:08:05.740Z,100802.36
2018-11-27T22:10:34.384Z,100810.54
2018-11-27T22:13:02.959Z,100814.01
2018-11-27T22:15:33.599Z,100810.89
2018-11-27T22:18:02.283Z,100803.81
2018-11-27T22:20:30.925Z,100811.10
2018-11-27T22:22:59.604Z,100813.23
2018-11-27T22:25:28.403Z,100810.42
2018-11-27T22:27:56.800Z,100815.24
2018-11-27T22:30:25.497Z,100816.53
2018-11-27T22:32:54.948Z,100817.98
2018-11-27T22:35:23.818Z,100824.92
2018-11-27T22:37:52.515Z,100816.77
2018-11-27T22:40:22.503Z,100821.67
2018-11-27T22:42:51.892Z,100817.55
2018-11-27T22:45:26.870Z,100818.14
2018-11-27T22:47:55.419Z,100817.79
2018-11-27T22:50:23.984Z,100825.00
2018-11-27T22:52:52.610Z,100819.38
2018-11-27T22:55:21.213Z,100816.56
2018-11-27T22:57:49.741Z,100825.09
2018-11-27T23:00:32.169Z,100827.21
2018-11-27T23:03:01.061Z,100833.42
2018-11-27T23:05:29.989Z,100825.11
2018-11-27T23:07:58.680Z,100824.20
2018-11-27T23:10:28.674Z,100828.34
2018-11-27T23:12:57.304Z,100824.73
2018-11-27T23:15:25.909Z,100824.49
2018-11-27T23:17:54.476Z,100817.27
2018-11-27T23:20:23.387Z,100821.91
2018-11-27T23:22:51.974Z,100823.28
2018-11-27T23:25:20.563Z,100830.63
2018-11-27T23:27:49.103Z,100835.44
2018-11-27T23:30:21.643Z,100834.74
2018-11-27T23:32:50.387Z,100838.69
2018-11-27T23:35:19.077Z,100831.91
2018-11-27T23:37:47.807Z,100841.27
2018-11-27T23:40:18.684Z,100836.02
2018-11-27T23:42:47.643Z,100826.87
2018-11-27T23:45:17.512Z,100834.39
2018-11-27T23:47:46.204Z,100833.64
2018-11-27T23:50:16.363Z,100833.66
2018-11-27T23:52:45.494Z,100834.90
2018-11-27T23:55:15.678Z,100838.23
2018-11-27T23:57:44.564Z,100845.44
